createdAt,value
2023-04-13T00:01:59.723Z,8.50
2023-04-13T00:04:26.273Z,8.40
2023-04-13T00:06:52.732Z,8.40
2023-04-13T00:09:19.160Z,8.40
2023-04-13T00:11:45.603Z,8.40
2023-04-13T00:14:12.400Z,8.30
2023-04-13T00:16:38.918Z,8.30
2023-04-13T00:19:05.306Z,8.30
2023-04-13T00:21:31.846Z,8.30
2023-04-13T00:23:58.447Z,8.30
2023-04-13T00:26:24.952Z,8.30
2023-04-13T00:28:51.398Z,8.30
2023-04-13T00:31:17.837Z,8.30
2023-04-13T00:33:44.283Z,8.30
2023-04-13T00:36:10.649Z,8.30
2023-04-13T00:38:37.092Z,8.30
2023-04-13T00:41:03.479Z,8.30
2023-04-13T00:43:30.257Z,8.30
2023-04-13T00:45:56.812Z,8.30
2023-04-13T00:48:23.333Z,8.30
2023-04-13T00:50:49.756Z,8.30
2023-04-13T00:53:16.162Z,8.30
2023-04-13T00:55:42.733Z,8.30
2023-04-13T00:58:09.387Z,8.30
2023-04-13T01:00:35.841Z,8.30
2023-04-13T01:03:02.364Z,8.30
2023-04-13T01:05:28.892Z,8.30
2023-04-13T01:07:55.323Z,8.30
2023-04-13T01:10:21.825Z,8.30
2023-04-13T01:12:48.288Z,8.30
2023-04-13T01:15:14.702Z,8.30
2023-04-13T01:17:41.136Z,8.30
2023-04-13T01:20:07.534Z,8.30
2023-04-13T01:22:33.968Z,8.30
2023-04-13T01:25:00.355Z,8.30
2023-04-13T01:27:26.796Z,8.30
2023-04-13T01:29:53.256Z,8.30
2023-04-13T01:32:19.627Z,8.30
2023-04-13T01:34:46.137Z,8.30
2023-04-13T01:37:12.573Z,8.40
2023-04-13T01:39:39.019Z,8.40
2023-04-13T01:42:05.493Z,8.40
2023-04-13T01:44:31.911Z,8.40
2023-04-13T01:46:58.479Z,8.40
2023-04-13T01:49:25.109Z,8.40
2023-04-13T01:51:51.571Z,8.40
2023-04-13T01:54:17.988Z,8.30
2023-04-13T01:56:44.418Z,8.30
2023-04-13T01:59:10.871Z,8.30
2023-04-13T02:01:37.332Z,8.30
2023-04-13T02:04:04.118Z,8.30
2023-04-13T02:06:31.105Z,8.30
2023-04-13T02:08:57.589Z,8.30
2023-04-13T02:11:24.036Z,8.30
2023-04-13T02:13:50.517Z,8.30
2023-04-13T02:16:16.966Z,8.30
2023-04-13T02:18:43.503Z,8.40
2023-04-13T02:21:09.926Z,8.30
2023-04-13T02:23:36.337Z,8.30
2023-04-13T02:26:02.713Z,8.30
2023-04-13T02:28:29.159Z,8.30
2023-04-13T02:30:55.617Z,8.30
2023-04-13T02:33:22.049Z,8.30
2023-04-13T02:35:48.517Z,8.30
2023-04-13T02:38:14.961Z,8.30
2023-04-13T02:40:41.597Z,8.40
2023-04-13T02:43:07.968Z,8.40
2023-04-13T02:45:34.476Z,8.40
2023-04-13T02:48:00.938Z,8.40
2023-04-13T02:50:27.394Z,8.40
2023-04-13T02:52:53.802Z,8.40
2023-04-13T02:55:20.259Z,8.40
2023-04-13T02:57:46.720Z,8.40
2023-04-13T03:00:13.163Z,8.50
2023-04-13T03:02:39.726Z,8.40
2023-04-13T03:05:06.347Z,8.40
2023-04-13T03:07:32.841Z,8.40
2023-04-13T03:09:59.309Z,8.50
2023-04-13T03:12:25.725Z,8.40
2023-04-13T03:14:52.157Z,8.40
2023-04-13T03:17:19.797Z,8.40
2023-04-13T03:19:46.379Z,8.50
2023-04-13T03:22:12.795Z,8.40
2023-04-13T03:24:39.232Z,8.40
2023-04-13T03:27:05.631Z,8.40
2023-04-13T03:29:32.014Z,8.40
2023-04-13T03:31:58.465Z,8.40
2023-04-13T03:34:24.875Z,8.40
2023-04-13T03:36:51.289Z,8.40
2023-04-13T03:39:17.760Z,8.40
2023-04-13T03:41:44.214Z,8.40
2023-04-13T03:44:10.605Z,8.40
2023-04-13T03:46:37.130Z,8.50
2023-04-13T03:49:03.583Z,8.50
2023-04-13T03:51:30.101Z,8.50
2023-04-13T03:53:56.614Z,8.50
2023-04-13T03:56:23.125Z,8.50
2023-04-13T03:58:49.595Z,8.50
2023-04-13T04:01:16.033Z,8.50
2023-04-13T04:03:42.569Z,8.50
2023-04-13T04:06:09.101Z,8.50
2023-04-13T04:08:35.534Z,8.50
2023-04-13T04:11:02.008Z,8.50
2023-04-13T04:13:28.469Z,8.50
2023-04-13T04:15:54.894Z,8.40
2023-04-13T04:18:21.357Z,8.40
2023-04-13T04:20:47.743Z,8.40
2023-04-13T04:23:14.163Z,8.40
2023-04-13T04:25:40.580Z,8.40
2023-04-13T04:28:06.995Z,8.40
2023-04-13T04:30:33.357Z,8.40
2023-04-13T04:33:00.122Z,8.30
2023-04-13T04:35:26.719Z,8.30
2023-04-13T04:37:53.137Z,8.30
2023-04-13T04:40:19.567Z,8.20
2023-04-13T04:42:46.003Z,8.20
2023-04-13T04:45:12.494Z,8.20
2023-04-13T04:47:38.933Z,8.10
2023-04-13T04:50:05.401Z,8.10
2023-04-13T04:52:31.975Z,8.10
2023-04-13T04:54:58.456Z,8.00
2023-04-13T04:57:24.853Z,8.10
2023-04-13T04:59:51.259Z,8.00
2023-04-13T05:02:17.728Z,8.00
2023-04-13T05:04:45.019Z,8.00
2023-04-13T05:07:11.504Z,7.90
2023-04-13T05:09:37.924Z,8.00
2023-04-13T05:12:04.377Z,8.00
2023-04-13T05:14:30.979Z,8.00
2023-04-13T05:16:57.400Z,8.00
2023-04-13T05:19:23.803Z,8.10
2023-04-13T05:21:50.248Z,8.10
2023-04-13T05:24:16.644Z,8.00
2023-04-13T05:26:43.027Z,8.00
2023-04-13T05:29:09.441Z,8.00
2023-04-13T05:31:35.859Z,8.00
2023-04-13T05:34:02.259Z,8.00
2023-04-13T05:36:28.698Z,8.00
2023-04-13T05:38:55.140Z,8.10
2023-04-13T05:41:21.513Z,8.10
2023-04-13T05:43:47.906Z,8.20
2023-04-13T05:46:14.363Z,8.30
2023-04-13T05:48:40.930Z,8.30
2023-04-13T05:51:07.324Z,8.30
2023-04-13T05:53:33.684Z,8.30
2023-04-13T05:56:00.150Z,8.30
2023-04-13T05:58:26.526Z,8.30
2023-04-13T06:00:52.983Z,8.30
2023-04-13T06:03:19.509Z,8.40
2023-04-13T06:05:46.024Z,8.40
2023-04-13T06:08:12.484Z,8.40
2023-04-13T06:10:38.887Z,8.50
2023-04-13T06:13:05.279Z,8.60
2023-04-13T06:15:31.679Z,8.70
2023-04-13T06:17:58.168Z,8.80
2023-04-13T06:20:24.631Z,8.80
2023-04-13T06:22:51.094Z,8.90
2023-04-13T06:25:17.579Z,8.90
2023-04-13T06:27:44.050Z,9.00
2023-04-13T06:30:10.584Z,9.00
2023-04-13T06:32:37.091Z,9.00
2023-04-13T06:35:03.552Z,9.00
2023-04-13T06:37:30.149Z,9.10
2023-04-13T06:39:56.576Z,9.10
2023-04-13T06:42:22.981Z,9.10
2023-04-13T06:44:49.421Z,9.20
2023-04-13T06:47:15.875Z,9.20
2023-04-13T06:49:42.310Z,9.20
2023-04-13T06:52:08.743Z,9.20
2023-04-13T06:54:35.126Z,9.30
2023-04-13T06:57:02.000Z,9.30
2023-04-13T06:59:28.427Z,9.30
2023-04-13T07:01:54.924Z,9.30
2023-04-13T07:04:21.443Z,9.30
2023-04-13T07:06:47.969Z,9.40
2023-04-13T07:09:14.360Z,9.30
2023-04-13T07:11:40.796Z,9.30
2023-04-13T07:14:07.898Z,9.30
2023-04-13T07:16:34.351Z,9.30
2023-04-13T07:19:01.170Z,9.20
2023-04-13T07:21:27.693Z,9.20
2023-04-13T07:23:54.153Z,9.20
2023-04-13T07:26:20.610Z,9.20
2023-04-13T07:28:47.078Z,9.30
2023-04-13T07:31:13.561Z,9.30
2023-04-13T07:33:40.050Z,9.30
2023-04-13T07:36:06.455Z,9.40
2023-04-13T07:38:32.904Z,9.50
2023-04-13T07:40:59.574Z,9.50
2023-04-13T07:43:25.961Z,9.50
2023-04-13T07:45:52.374Z,9.60
2023-04-13T07:48:18.806Z,9.60
2023-04-13T07:50:45.273Z,9.60
2023-04-13T07:53:11.677Z,9.60
2023-04-13T07:55:38.089Z,9.60
2023-04-13T07:58:04.538Z,9.60
2023-04-13T08:00:31.181Z,9.70
2023-04-13T08:02:57.733Z,9.80
2023-04-13T08:05:24.457Z,9.80
2023-04-13T08:07:51.006Z,9.80
2023-04-13T08:10:17.449Z,9.80
2023-04-13T08:12:43.883Z,9.80
2023-04-13T08:15:10.389Z,9.90
2023-04-13T08:17:36.909Z,10.00
2023-04-13T08:20:03.359Z,10.00
2023-04-13T08:22:29.762Z,9.90
2023-04-13T08:24:56.187Z,9.90
2023-04-13T08:27:22.556Z,9.90
2023-04-13T08:29:49.215Z,9.90
2023-04-13T08:32:15.756Z,9.90
2023-04-13T08:34:42.311Z,10.10
2023-04-13T08:37:08.707Z,10.30
2023-04-13T08:39:35.113Z,10.40
2023-04-13T08:42:01.486Z,10.40
2023-04-13T08:44:27.921Z,10.40
2023-04-13T08:46:54.344Z,10.30
2023-04-13T08:49:20.776Z,10.20
2023-04-13T08:51:47.256Z,10.20
2023-04-13T08:54:13.702Z,10.20
2023-04-13T08:56:45.888Z,10.30
2023-04-13T08:59:12.937Z,10.60
2023-04-13T09:01:39.505Z,10.90
2023-04-13T09:04:06.202Z,11.30
2023-04-13T09:06:32.757Z,11.70
2023-04-13T09:08:59.772Z,12.00
2023-04-13T09:11:26.381Z,12.10
2023-04-13T09:13:52.771Z,12.00
2023-04-13T09:16:19.211Z,11.90
2023-04-13T09:18:45.716Z,12.00
2023-04-13T09:21:12.182Z,12.20
2023-04-13T09:23:38.631Z,12.40
2023-04-13T09:26:05.107Z,12.70
2023-04-13T09:28:31.496Z,12.80
2023-04-13T09:30:57.968Z,13.00
2023-04-13T09:33:24.401Z,13.20
2023-04-13T09:35:50.796Z,13.50
2023-04-13T09:38:17.179Z,13.50
2023-04-13T09:40:43.621Z,13.60
2023-04-13T09:43:10.101Z,13.60
2023-04-13T09:45:36.571Z,13.40
2023-04-13T09:48:03.107Z,13.30
2023-04-13T09:50:29.790Z,13.10
2023-04-13T09:52:56.159Z,13.00
2023-04-13T09:55:22.639Z,13.00
2023-04-13T09:57:49.070Z,12.90
2023-04-13T10:00:17.699Z,12.80
2023-04-13T10:02:45.655Z,13.10
2023-04-13T10:05:12.504Z,13.20
2023-04-13T10:07:38.986Z,13.20
2023-04-13T10:10:05.383Z,13.00
2023-04-13T10:12:32.223Z,12.80
2023-04-13T10:14:58.596Z,12.70
2023-04-13T10:17:25.086Z,12.70
2023-04-13T10:19:51.701Z,12.70
2023-04-13T10:22:18.109Z,12.70
2023-04-13T10:24:44.483Z,12.60
2023-04-13T10:27:10.925Z,12.50
2023-04-13T10:29:37.366Z,12.40
2023-04-13T10:32:04.090Z,12.60
2023-04-13T10:34:31.092Z,13.10
2023-04-13T10:36:57.480Z,13.40
2023-04-13T10:39:23.877Z,13.70
2023-04-13T10:41:50.263Z,14.00
2023-04-13T10:44:16.692Z,14.30
2023-04-13T10:46:43.202Z,14.60
2023-04-13T10:49:09.683Z,15.00
2023-04-13T10:51:36.091Z,15.20
2023-04-13T10:54:02.491Z,15.50
2023-04-13T10:56:30.014Z,15.50
2023-04-13T10:58:56.438Z,15.30
2023-04-13T11:01:22.862Z,14.80
2023-04-13T11:04:03.323Z,14.40
2023-04-13T11:06:31.484Z,14.10
2023-04-13T11:08:57.917Z,14.00
2023-04-13T11:11:24.316Z,14.20
2023-04-13T11:13:50.942Z,14.70
2023-04-13T11:16:17.401Z,15.00
2023-04-13T11:18:43.905Z,15.20
2023-04-13T11:21:10.356Z,15.40
2023-04-13T11:23:36.844Z,15.80
2023-04-13T11:26:03.241Z,16.00
2023-04-13T11:28:29.839Z,15.90
2023-04-13T11:30:56.415Z,15.70
2023-04-13T11:33:23.002Z,15.40
2023-04-13T11:35:50.328Z,15.30
2023-04-13T11:38:16.896Z,15.10
2023-04-13T11:40:43.324Z,15.50
2023-04-13T11:43:09.769Z,16.10
2023-04-13T11:45:36.170Z,16.60
2023-04-13T11:48:02.645Z,17.10
2023-04-13T11:50:29.101Z,17.20
2023-04-13T11:52:55.570Z,17.40
2023-04-13T11:55:24.009Z,17.60
2023-04-13T11:57:50.694Z,17.60
2023-04-13T12:00:17.165Z,17.70
2023-04-13T12:03:00.279Z,18.00
2023-04-13T12:05:28.210Z,17.80
2023-04-13T12:07:55.123Z,17.50
2023-04-13T12:10:24.607Z,17.40
2023-04-13T12:12:56.538Z,17.70
2023-04-13T12:15:42.717Z,18.00
2023-04-13T12:18:15.339Z,18.20
2023-04-13T12:20:44.117Z,18.20
2023-04-13T12:23:19.106Z,18.00
2023-04-13T12:25:49.325Z,17.70
2023-04-13T12:28:16.300Z,17.30
2023-04-13T12:30:42.745Z,17.20
2023-04-13T12:33:09.270Z,17.40
2023-04-13T12:35:35.738Z,17.60
2023-04-13T12:38:02.334Z,17.70
2023-04-13T12:40:28.785Z,17.70
2023-04-13T12:42:55.214Z,17.90
2023-04-13T12:45:21.645Z,17.80
2023-04-13T12:47:48.149Z,18.00
2023-04-13T12:50:14.648Z,18.40
2023-04-13T12:52:41.140Z,18.60
2023-04-13T12:55:07.545Z,18.40
2023-04-13T12:57:33.991Z,18.40
2023-04-13T13:00:00.509Z,18.30
2023-04-13T13:02:27.051Z,18.30
2023-04-13T13:04:53.673Z,18.60
2023-04-13T13:07:20.223Z,19.10
2023-04-13T13:09:46.665Z,19.10
2023-04-13T13:12:13.032Z,18.80
2023-04-13T13:14:39.407Z,18.30
2023-04-13T13:17:05.884Z,18.30
2023-04-13T13:19:32.731Z,18.20
2023-04-13T13:21:59.143Z,17.80
2023-04-13T13:24:25.558Z,17.70
2023-04-13T13:27:27.737Z,17.60
2023-04-13T13:29:38.393Z,17.90
2023-04-13T13:32:04.835Z,18.10
2023-04-13T13:34:31.414Z,18.00
2023-04-13T13:36:57.841Z,17.70
2023-04-13T13:39:24.258Z,17.70
2023-04-13T13:41:50.685Z,17.90
2023-04-13T13:44:17.150Z,18.00
2023-04-13T13:46:43.588Z,18.30
2023-04-13T13:49:09.945Z,18.50
2023-04-13T13:51:36.414Z,18.60
2023-04-13T13:54:02.862Z,18.90
2023-04-13T13:56:29.360Z,19.10
2023-04-13T13:58:55.977Z,18.80
2023-04-13T14:01:22.499Z,18.50
2023-04-13T14:03:49.054Z,18.50
2023-04-13T14:06:15.640Z,18.60
2023-04-13T14:08:42.079Z,18.60
2023-04-13T14:11:08.496Z,18.80
2023-04-13T14:13:34.936Z,18.90
2023-04-13T14:16:01.561Z,19.00
2023-04-13T14:18:28.108Z,19.10
2023-04-13T14:20:54.496Z,19.30
2023-04-13T14:23:20.962Z,19.40
2023-04-13T14:25:47.419Z,19.50
2023-04-13T14:28:13.883Z,19.70
2023-04-13T14:30:40.276Z,19.60
2023-04-13T14:33:06.777Z,19.50
2023-04-13T14:35:33.276Z,19.10
2023-04-13T14:37:59.788Z,19.00
2023-04-13T14:40:26.227Z,19.20
2023-04-13T14:42:52.808Z,19.20
2023-04-13T14:45:19.367Z,19.40
2023-04-13T14:47:45.769Z,19.60
2023-04-13T14:50:12.490Z,19.70
2023-04-13T14:52:39.019Z,19.40
2023-04-13T14:55:05.578Z,19.20
2023-04-13T14:57:32.079Z,19.00
2023-04-13T14:59:58.479Z,19.00
2023-04-13T15:02:25.014Z,19.00
2023-04-13T15:04:51.623Z,18.80
2023-04-13T15:07:18.197Z,18.60
2023-04-13T15:09:44.567Z,18.60
2023-04-13T15:12:13.096Z,18.50
2023-04-13T15:14:40.232Z,18.60
2023-04-13T15:17:06.763Z,18.70
2023-04-13T15:19:33.248Z,18.80
2023-04-13T15:21:59.814Z,18.80
2023-04-13T15:24:26.232Z,18.90
2023-04-13T15:26:52.677Z,19.00
2023-04-13T15:29:19.160Z,19.10
2023-04-13T15:31:45.628Z,18.90
2023-04-13T15:34:12.449Z,19.00
2023-04-13T15:36:38.905Z,19.10
2023-04-13T15:39:05.419Z,19.00
2023-04-13T15:41:31.902Z,18.70
2023-04-13T15:43:58.287Z,18.60
2023-04-13T15:46:24.745Z,18.90
2023-04-13T15:48:51.260Z,19.20
2023-04-13T15:51:17.671Z,19.50
2023-04-13T15:53:44.127Z,19.60
2023-04-13T15:56:10.617Z,19.50
2023-04-13T15:58:37.314Z,19.20
2023-04-13T16:01:03.920Z,19.10
2023-04-13T16:03:30.753Z,19.00
2023-04-13T16:05:57.263Z,19.20
2023-04-13T16:08:23.657Z,19.40
2023-04-13T16:10:50.076Z,19.50
2023-04-13T16:13:16.685Z,19.40
2023-04-13T16:15:43.171Z,19.30
2023-04-13T16:18:09.587Z,19.20
2023-04-13T16:20:36.020Z,19.20
2023-04-13T16:23:02.436Z,19.30
2023-04-13T16:25:28.890Z,19.10
2023-04-13T16:27:56.323Z,18.90
2023-04-13T16:30:22.915Z,18.80
2023-04-13T16:32:49.507Z,18.80
2023-04-13T16:35:16.057Z,18.80
2023-04-13T16:37:42.494Z,18.80
2023-04-13T16:40:08.964Z,19.00
2023-04-13T16:42:35.372Z,19.00
2023-04-13T16:45:01.882Z,19.00
2023-04-13T16:47:28.331Z,19.00
2023-04-13T16:49:54.825Z,19.00
2023-04-13T16:52:21.293Z,18.90
2023-04-13T16:54:47.802Z,18.80
2023-04-13T16:57:14.248Z,18.70
2023-04-13T16:59:40.710Z,18.70
2023-04-13T17:02:08.502Z,18.80
2023-04-13T17:04:37.957Z,18.80
2023-04-13T17:07:04.430Z,18.60
2023-04-13T17:09:30.904Z,18.50
2023-04-13T17:11:57.309Z,18.50
2023-04-13T17:14:23.752Z,18.50
2023-04-13T17:16:50.252Z,18.50
2023-04-13T17:19:16.663Z,18.40
2023-04-13T17:21:43.071Z,18.30
2023-04-13T17:24:09.522Z,18.20
2023-04-13T17:26:35.933Z,18.10
2023-04-13T17:29:02.475Z,17.90
2023-04-13T17:31:29.033Z,17.80
2023-04-13T17:33:55.483Z,17.60
2023-04-13T17:36:21.892Z,17.40
2023-04-13T17:38:48.293Z,17.30
2023-04-13T17:41:14.726Z,17.30
2023-04-13T17:43:41.129Z,17.20
2023-04-13T17:46:07.596Z,17.10
2023-04-13T17:48:34.128Z,17.10
2023-04-13T17:51:00.842Z,17.10
2023-04-13T17:53:27.236Z,17.00
2023-04-13T17:55:53.681Z,17.00
2023-04-13T17:58:20.088Z,17.00
2023-04-13T18:00:46.565Z,16.80
2023-04-13T18:03:13.108Z,16.80
2023-04-13T18:05:39.611Z,16.70
2023-04-13T18:08:06.055Z,16.60
2023-04-13T18:10:32.489Z,16.40
2023-04-13T18:12:58.939Z,16.30
2023-04-13T18:15:25.430Z,16.10
2023-04-13T18:17:51.938Z,15.90
2023-04-13T18:20:18.435Z,15.80
2023-04-13T18:22:44.902Z,15.60
2023-04-13T18:25:11.455Z,15.40
2023-04-13T18:27:37.908Z,15.30
2023-04-13T18:30:04.331Z,15.10
2023-04-13T18:32:30.964Z,15.00
2023-04-13T18:34:57.434Z,14.80
2023-04-13T18:37:23.837Z,14.70
2023-04-13T18:39:50.234Z,14.50
2023-04-13T18:42:16.599Z,14.40
2023-04-13T18:44:43.040Z,14.20
2023-04-13T18:47:09.456Z,14.10
2023-04-13T18:49:35.856Z,14.00
2023-04-13T18:52:02.255Z,13.80
2023-04-13T18:54:28.726Z,13.70
2023-04-13T18:56:55.189Z,13.60
2023-04-13T18:59:21.655Z,13.50
2023-04-13T19:01:48.164Z,13.40
2023-04-13T19:04:14.961Z,13.30
2023-04-13T19:06:41.529Z,13.20
2023-04-13T19:09:07.932Z,13.10
2023-04-13T19:11:34.364Z,13.00
2023-04-13T19:14:01.057Z,12.80
2023-04-13T19:16:27.572Z,12.80
2023-04-13T19:18:54.020Z,12.70
2023-04-13T19:21:20.415Z,12.60
2023-04-13T19:23:46.847Z,12.50
2023-04-13T19:26:13.306Z,12.40
2023-04-13T19:28:39.730Z,12.20
2023-04-13T19:31:06.167Z,12.10
2023-04-13T19:33:32.574Z,12.00
2023-04-13T19:35:58.945Z,12.00
2023-04-13T19:38:25.385Z,12.00
2023-04-13T19:40:51.830Z,11.90
2023-04-13T19:43:18.228Z,11.90
2023-04-13T19:45:44.679Z,11.80
2023-04-13T19:48:11.376Z,11.80
2023-04-13T19:50:37.805Z,11.80
2023-04-13T19:53:04.383Z,11.70
2023-04-13T19:55:30.930Z,11.70
2023-04-13T19:57:57.380Z,11.60
2023-04-13T20:00:23.843Z,11.60
2023-04-13T20:02:50.486Z,11.50
2023-04-13T20:05:17.137Z,11.40
2023-04-13T20:07:43.532Z,11.40
2023-04-13T20:10:09.945Z,11.40
2023-04-13T20:12:36.370Z,11.30
2023-04-13T20:15:02.807Z,11.20
2023-04-13T20:17:29.271Z,11.20
2023-04-13T20:19:55.751Z,11.10
2023-04-13T20:22:22.201Z,11.10
2023-04-13T20:24:48.616Z,11.00
2023-04-13T20:27:15.162Z,11.00
2023-04-13T20:29:41.609Z,11.00
2023-04-13T20:32:08.039Z,10.90
2023-04-13T20:34:34.417Z,10.80
2023-04-13T20:37:00.899Z,10.80
2023-04-13T20:39:27.378Z,10.70
2023-04-13T20:41:53.847Z,10.70
2023-04-13T20:44:20.297Z,10.50
2023-04-13T20:46:46.747Z,10.40
2023-04-13T20:49:13.152Z,10.40
2023-04-13T20:51:39.654Z,10.30
2023-04-13T20:54:06.106Z,10.20
2023-04-13T20:56:32.575Z,10.20
2023-04-13T20:58:59.034Z,10.10
2023-04-13T21:01:25.520Z,10.00
2023-04-13T21:03:52.070Z,9.90
2023-04-13T21:06:18.555Z,9.80
2023-04-13T21:08:45.035Z,9.90
2023-04-13T21:11:11.491Z,9.90
2023-04-13T21:13:37.960Z,9.90
2023-04-13T21:16:04.521Z,9.80
2023-04-13T21:18:30.958Z,9.70
2023-04-13T21:20:57.374Z,9.60
2023-04-13T21:23:23.737Z,9.60
2023-04-13T21:25:50.184Z,9.70
2023-04-13T21:28:16.606Z,9.70
2023-04-13T21:30:43.035Z,9.80
2023-04-13T21:33:09.480Z,9.80
2023-04-13T21:35:35.934Z,9.90
2023-04-13T21:38:02.358Z,10.00
2023-04-13T21:40:28.753Z,10.10
2023-04-13T21:42:55.196Z,10.20
2023-04-13T21:45:21.660Z,10.30
2023-04-13T21:47:48.150Z,10.30
2023-04-13T21:50:14.701Z,10.40
2023-04-13T21:52:41.139Z,10.20
2023-04-13T21:55:07.520Z,9.90
2023-04-13T21:57:33.982Z,9.80
2023-04-13T22:00:00.730Z,9.80
2023-04-13T22:02:27.284Z,9.80
2023-04-13T22:04:53.818Z,9.70
2023-04-13T22:07:28.466Z,9.60
2023-04-13T22:10:01.860Z,9.60
2023-04-13T22:12:28.318Z,9.50
2023-04-13T22:14:54.788Z,9.60
2023-04-13T22:17:21.186Z,9.70
2023-04-13T22:19:47.659Z,9.70
2023-04-13T22:22:14.142Z,9.60
2023-04-13T22:24:40.601Z,9.60
2023-04-13T22:27:07.034Z,9.50
2023-04-13T22:29:33.516Z,9.50
2023-04-13T22:32:00.006Z,9.50
2023-04-13T22:34:26.456Z,9.40
2023-04-13T22:36:52.868Z,9.30
2023-04-13T22:39:19.251Z,9.30
2023-04-13T22:41:45.621Z,9.30
2023-04-13T22:44:12.176Z,9.30
2023-04-13T22:46:38.645Z,9.20
2023-04-13T22:49:05.053Z,9.10
2023-04-13T22:51:32.330Z,9.10
2023-04-13T22:53:58.849Z,9.00
2023-04-13T22:56:25.287Z,8.90
2023-04-13T22:58:51.706Z,8.90
2023-04-13T23:01:18.203Z,8.90
2023-04-13T23:03:44.879Z,8.90
2023-04-13T23:06:11.502Z,9.00
2023-04-13T23:08:37.947Z,9.00
2023-04-13T23:11:04.389Z,9.00
2023-04-13T23:13:31.004Z,9.00
2023-04-13T23:15:57.460Z,9.00
2023-04-13T23:18:23.913Z,9.00
2023-04-13T23:20:50.347Z,9.00
2023-04-13T23:23:16.780Z,8.90
2023-04-13T23:25:43.211Z,8.90
2023-04-13T23:28:09.649Z,8.80
2023-04-13T23:30:36.080Z,8.80
2023-04-13T23:33:02.552Z,8.90
2023-04-13T23:35:29.134Z,8.90
2023-04-13T23:37:55.560Z,8.90
2023-04-13T23:40:22.009Z,8.90
2023-04-13T23:42:48.423Z,8.90
2023-04-13T23:45:14.809Z,8.80
2023-04-13T23:47:41.269Z,8.70
2023-04-13T23:50:07.760Z,8.60
2023-04-13T23:52:34.173Z,8.50
2023-04-13T23:55:00.914Z,8.40
2023-04-13T23:57:27.348Z,8.30
2023-04-13T23:59:53.759Z,8.20
